createdAt,value
2018-07-16T00:00:56.303Z,67.38
2018-07-16T00:02:03.215Z,67.49
2018-07-16T00:03:10.118Z,67.51
2018-07-16T00:04:17.059Z,67.47
2018-07-16T00:05:24.027Z,67.51
2018-07-16T00:06:30.996Z,67.59
2018-07-16T00:07:37.915Z,67.56
2018-07-16T00:08:44.839Z,67.53
2018-07-16T00:09:51.870Z,67.52
2018-07-16T00:10:58.822Z,67.53
2018-07-16T00:12:05.696Z,67.49
2018-07-16T00:13:12.671Z,67.59
2018-07-16T00:14:20.897Z,67.58
2018-07-16T00:15:27.595Z,67.61
2018-07-16T00:16:34.991Z,67.57
2018-07-16T00:17:41.468Z,67.55
2018-07-16T00:18:48.335Z,67.56
2018-07-16T00:19:55.183Z,67.60
2018-07-16T00:21:02.056Z,67.56
2018-07-16T00:22:08.971Z,67.56
2018-07-16T00:23:15.811Z,67.57
2018-07-16T00:24:22.663Z,67.61
2018-07-16T00:25:29.542Z,67.68
2018-07-16T00:26:36.367Z,67.62
2018-07-16T00:27:43.270Z,67.55
2018-07-16T00:28:50.522Z,67.58
2018-07-16T00:29:56.927Z,67.57
2018-07-16T00:31:03.791Z,67.51
2018-07-16T00:32:10.642Z,67.50
2018-07-16T00:33:17.586Z,67.59
2018-07-16T00:34:24.390Z,67.56
2018-07-16T00:35:31.226Z,67.46
2018-07-16T00:36:38.059Z,67.50
2018-07-16T00:37:44.902Z,67.49
2018-07-16T00:38:51.934Z,67.42
2018-07-16T00:39:58.734Z,67.26
2018-07-16T00:41:05.596Z,67.24
2018-07-16T00:42:12.474Z,67.21
2018-07-16T00:43:19.287Z,67.21
2018-07-16T00:44:26.259Z,67.17
2018-07-16T00:45:33.118Z,67.18
2018-07-16T00:46:40.080Z,67.13
2018-07-16T00:47:46.980Z,67.12
2018-07-16T00:48:53.919Z,67.09
2018-07-16T00:50:00.807Z,67.07
2018-07-16T00:51:07.800Z,67.10
2018-07-16T00:52:14.702Z,67.11
2018-07-16T00:53:21.533Z,67.15
2018-07-16T00:54:28.395Z,67.27
2018-07-16T00:55:35.291Z,67.26
2018-07-16T00:56:42.147Z,67.18
2018-07-16T00:57:49.079Z,67.38
2018-07-16T00:58:55.926Z,67.40
2018-07-16T01:00:02.887Z,67.51
2018-07-16T01:01:09.771Z,67.53
2018-07-16T01:02:16.679Z,67.63
2018-07-16T01:03:23.520Z,67.64
2018-07-16T01:04:30.363Z,67.63
2018-07-16T01:05:37.260Z,67.67
2018-07-16T01:06:44.120Z,67.73
2018-07-16T01:07:51.047Z,67.77
2018-07-16T01:08:57.955Z,67.67
2018-07-16T01:10:04.881Z,67.61
2018-07-16T01:11:11.767Z,67.54
2018-07-16T01:12:18.623Z,67.59
2018-07-16T01:14:32.550Z,67.63
2018-07-16T01:15:39.390Z,67.64
2018-07-16T01:16:46.254Z,67.65
2018-07-16T01:17:53.163Z,67.67
2018-07-16T01:18:59.991Z,67.69
2018-07-16T01:20:06.778Z,67.62
2018-07-16T01:21:13.611Z,67.52
2018-07-16T01:22:20.478Z,67.49
2018-07-16T01:23:27.315Z,67.50
2018-07-16T01:24:34.399Z,67.56
2018-07-16T01:25:41.267Z,67.63
2018-07-16T01:26:48.339Z,67.69
2018-07-16T01:27:55.183Z,67.68
2018-07-16T01:29:02.079Z,67.71
2018-07-16T01:30:09.071Z,67.73
2018-07-16T01:31:15.882Z,67.76
2018-07-16T01:32:22.703Z,67.73
2018-07-16T01:33:29.563Z,67.76
2018-07-16T01:34:36.600Z,67.80
2018-07-16T01:35:43.555Z,67.81
2018-07-16T01:36:50.439Z,67.89
2018-07-16T01:37:57.306Z,67.91
2018-07-16T01:39:04.163Z,67.90
2018-07-16T01:40:11.016Z,67.85
2018-07-16T01:41:17.867Z,67.83
2018-07-16T01:42:24.691Z,67.81
2018-07-16T01:43:31.567Z,67.78
2018-07-16T01:44:39.183Z,67.73
2018-07-16T01:45:45.590Z,67.81
2018-07-16T01:46:52.419Z,67.86
2018-07-16T01:47:59.382Z,67.79
2018-07-16T01:49:06.255Z,67.83
2018-07-16T01:50:13.090Z,67.87
2018-07-16T01:51:19.927Z,67.85
2018-07-16T01:52:26.791Z,67.90
2018-07-16T01:53:33.634Z,68.01
2018-07-16T01:54:40.469Z,68.12
2018-07-16T01:55:47.428Z,68.14
2018-07-16T01:56:59.461Z,68.12
2018-07-16T01:58:01.344Z,68.01
2018-07-16T01:59:08.167Z,68.00
2018-07-16T02:00:15.011Z,68.04
2018-07-16T02:01:21.850Z,68.04
2018-07-16T02:02:28.719Z,68.04
2018-07-16T02:03:51.307Z,68.03
2018-07-16T02:04:58.226Z,68.07
2018-07-16T02:06:05.178Z,68.10
2018-07-16T02:07:12.007Z,68.09
2018-07-16T02:08:18.843Z,68.07
2018-07-16T02:09:25.883Z,68.08
2018-07-16T02:10:32.736Z,68.14
2018-07-16T02:11:39.596Z,68.17
2018-07-16T02:13:53.334Z,68.13
2018-07-16T02:15:00.268Z,68.12
2018-07-16T02:16:07.183Z,68.10
2018-07-16T02:17:14.087Z,68.13
2018-07-16T02:18:20.932Z,68.14
2018-07-16T02:19:27.848Z,68.17
2018-07-16T02:20:34.671Z,68.25
2018-07-16T02:21:41.572Z,68.31
2018-07-16T02:22:48.462Z,68.26
2018-07-16T02:23:55.372Z,68.18
2018-07-16T02:25:02.220Z,68.19
2018-07-16T02:26:09.183Z,68.15
2018-07-16T02:27:16.010Z,68.16
2018-07-16T02:28:22.875Z,68.12
2018-07-16T02:29:29.724Z,68.09
2018-07-16T02:30:46.324Z,68.03
2018-07-16T02:31:43.746Z,68.03
2018-07-16T02:32:50.604Z,68.13
2018-07-16T02:33:57.496Z,68.22
2018-07-16T02:35:04.339Z,68.25
2018-07-16T02:36:11.228Z,68.20
2018-07-16T02:37:18.060Z,68.18
2018-07-16T02:38:24.995Z,68.21
2018-07-16T02:39:31.825Z,68.21
2018-07-16T02:40:38.799Z,68.26
2018-07-16T02:41:45.945Z,68.30
2018-07-16T02:42:52.813Z,68.34
2018-07-16T02:43:59.704Z,68.33
2018-07-16T02:45:06.586Z,68.28
2018-07-16T02:46:13.539Z,68.23
2018-07-16T02:47:20.496Z,68.24
2018-07-16T02:48:27.359Z,68.28
2018-07-16T02:49:34.235Z,68.28
2018-07-16T02:50:41.118Z,68.31
2018-07-16T02:51:47.932Z,68.32
2018-07-16T02:52:54.784Z,68.36
2018-07-16T02:54:01.708Z,68.33
2018-07-16T02:55:08.579Z,68.35
2018-07-16T02:56:15.405Z,68.29
2018-07-16T02:57:22.267Z,68.26
2018-07-16T02:58:29.179Z,68.21
2018-07-16T02:59:36.035Z,68.22
2018-07-16T03:00:42.864Z,68.14
2018-07-16T03:01:49.735Z,68.17
2018-07-16T03:02:56.604Z,68.21
2018-07-16T03:04:03.471Z,68.21
2018-07-16T03:05:10.358Z,68.23
2018-07-16T03:06:17.159Z,68.23
2018-07-16T03:07:24.006Z,68.31
2018-07-16T03:08:30.828Z,68.25
2018-07-16T03:09:37.630Z,68.25
2018-07-16T03:10:44.513Z,68.19
2018-07-16T03:11:51.378Z,68.21
2018-07-16T03:13:11.967Z,68.20
2018-07-16T03:14:19.044Z,68.21
2018-07-16T03:15:26.324Z,68.21
2018-07-16T03:16:32.655Z,68.17
2018-07-16T03:17:39.531Z,68.18
2018-07-16T03:18:46.500Z,68.18
2018-07-16T03:19:53.350Z,68.20
2018-07-16T03:21:00.158Z,68.19
2018-07-16T03:22:07.444Z,68.19
2018-07-16T03:23:13.762Z,68.19
2018-07-16T03:24:20.610Z,68.14
2018-07-16T03:25:27.456Z,68.13
2018-07-16T03:26:34.300Z,68.17
2018-07-16T03:27:41.246Z,68.19
2018-07-16T03:28:48.146Z,68.24
2018-07-16T03:29:54.966Z,68.28
2018-07-16T03:31:01.808Z,68.34
2018-07-16T03:32:08.652Z,68.32
2018-07-16T03:33:15.543Z,68.32
2018-07-16T03:34:22.418Z,68.28
2018-07-16T03:35:29.295Z,68.29
2018-07-16T03:36:36.203Z,68.26
2018-07-16T03:37:43.023Z,68.31
2018-07-16T03:38:49.867Z,68.32
2018-07-16T03:39:56.763Z,68.32
2018-07-16T03:41:03.608Z,68.28
2018-07-16T03:42:10.511Z,68.26
2018-07-16T03:43:17.337Z,68.24
2018-07-16T03:44:24.259Z,68.21
2018-07-16T03:45:31.090Z,68.21
2018-07-16T03:46:37.862Z,68.24
2018-07-16T03:47:44.710Z,68.15
2018-07-16T03:48:51.600Z,68.12
2018-07-16T03:49:58.487Z,68.18
2018-07-16T03:51:05.366Z,68.26
2018-07-16T03:52:12.211Z,68.27
2018-07-16T03:53:19.060Z,68.28
2018-07-16T03:54:25.917Z,68.23
2018-07-16T03:55:32.727Z,68.26
2018-07-16T03:56:39.637Z,68.26
2018-07-16T03:57:46.551Z,68.23
2018-07-16T03:58:53.401Z,68.17
2018-07-16T04:00:00.192Z,68.18
2018-07-16T04:01:07.197Z,68.19
2018-07-16T04:02:14.061Z,68.29
2018-07-16T04:03:20.868Z,68.38
2018-07-16T04:04:27.679Z,68.43
2018-07-16T04:05:34.516Z,68.47
2018-07-16T04:06:41.327Z,68.54
2018-07-16T04:07:48.201Z,68.60
2018-07-16T04:08:55.035Z,68.63
2018-07-16T04:10:01.854Z,68.58
2018-07-16T04:11:08.764Z,68.61
2018-07-16T04:12:25.819Z,68.65
2018-07-16T04:13:32.641Z,68.73
2018-07-16T04:14:39.472Z,68.72
2018-07-16T04:15:46.313Z,68.69
2018-07-16T04:16:53.110Z,68.67
2018-07-16T04:17:59.963Z,68.60
2018-07-16T04:19:06.791Z,68.55
2018-07-16T04:20:13.603Z,68.67
2018-07-16T04:21:20.427Z,68.70
2018-07-16T04:22:27.242Z,68.70
2018-07-16T04:23:34.031Z,68.72
2018-07-16T04:24:40.887Z,68.79
2018-07-16T04:25:47.731Z,68.81
2018-07-16T04:26:54.550Z,68.85
2018-07-16T04:28:01.391Z,68.82
2018-07-16T04:29:08.303Z,68.85
2018-07-16T04:30:15.163Z,68.86
2018-07-16T04:31:22.055Z,68.86
2018-07-16T04:32:28.938Z,68.86
2018-07-16T04:33:36.064Z,68.86
2018-07-16T04:34:42.966Z,68.91
2018-07-16T04:35:49.816Z,68.95
2018-07-16T04:36:56.667Z,69.03
2018-07-16T04:38:03.776Z,69.12
2018-07-16T04:39:10.291Z,69.19
2018-07-16T04:40:17.099Z,69.26
2018-07-16T04:41:23.942Z,69.32
2018-07-16T04:42:30.807Z,69.31
2018-07-16T04:43:37.989Z,69.32
2018-07-16T04:44:44.354Z,69.35
2018-07-16T04:45:51.159Z,69.41
2018-07-16T04:46:58.027Z,69.51
2018-07-16T04:48:04.923Z,69.64
2018-07-16T04:49:11.775Z,69.72
2018-07-16T04:50:18.618Z,69.87
2018-07-16T04:51:25.471Z,70.04
2018-07-16T04:52:32.313Z,70.16
2018-07-16T04:53:39.124Z,70.26
2018-07-16T04:54:45.976Z,70.31
2018-07-16T04:55:52.801Z,70.41
2018-07-16T04:56:59.614Z,70.53
2018-07-16T04:58:06.511Z,70.68
2018-07-16T04:59:13.403Z,70.83
2018-07-16T05:00:20.283Z,70.94
2018-07-16T05:01:27.218Z,71.03
2018-07-16T05:02:34.284Z,71.13
2018-07-16T05:03:41.117Z,71.22
2018-07-16T05:04:48.087Z,71.34
2018-07-16T05:05:55.209Z,71.39
2018-07-16T05:07:02.273Z,71.46
2018-07-16T05:08:09.419Z,71.57
2018-07-16T05:09:16.324Z,71.62
2018-07-16T05:10:23.326Z,71.70
2018-07-16T05:11:30.346Z,71.77
2018-07-16T05:12:37.475Z,71.84
2018-07-16T05:13:44.483Z,71.93
2018-07-16T05:14:51.323Z,71.99
2018-07-16T05:15:58.206Z,72.04
2018-07-16T05:17:05.054Z,72.06
2018-07-16T05:18:11.955Z,72.09
2018-07-16T05:19:18.956Z,72.16
2018-07-16T05:20:25.932Z,72.24
2018-07-16T05:21:32.937Z,72.37
2018-07-16T05:22:39.892Z,72.46
2018-07-16T05:23:53.426Z,72.59
2018-07-16T05:24:59.302Z,72.75
2018-07-16T05:27:40.538Z,72.85
2018-07-16T05:28:47.413Z,73.04
2018-07-16T05:29:54.433Z,73.11
2018-07-16T05:31:01.745Z,73.31
2018-07-16T05:32:09.281Z,73.48
2018-07-16T05:33:15.255Z,73.59
2018-07-16T05:34:22.340Z,73.68
2018-07-16T05:35:29.141Z,73.79
2018-07-16T05:36:36.178Z,73.85
2018-07-16T05:38:49.632Z,74.12
2018-07-16T05:39:56.873Z,74.22
2018-07-16T05:41:03.636Z,74.36
2018-07-16T05:42:10.456Z,74.43
2018-07-16T05:43:17.482Z,74.54
2018-07-16T05:44:25.783Z,74.63
2018-07-16T05:45:31.318Z,74.85
2018-07-16T05:51:57.327Z,75.25
2018-07-16T05:53:04.240Z,75.69
2018-07-16T05:54:11.221Z,75.81
2018-07-16T05:55:18.289Z,75.92
2018-07-16T05:56:25.160Z,76.13
2018-07-16T05:57:32.090Z,76.22
2018-07-16T06:05:52.824Z,76.96
2018-07-16T06:07:00.278Z,77.43
2018-07-16T06:08:07.916Z,77.62
2018-07-16T06:09:25.053Z,77.76
2018-07-16T06:10:31.998Z,77.89
2018-07-16T06:11:38.837Z,77.99
2018-07-16T06:12:45.956Z,78.11
2018-07-16T06:13:52.613Z,78.30
2018-07-16T06:14:59.303Z,78.43
2018-07-16T06:17:13.426Z,78.63
2018-07-16T06:18:20.126Z,78.74
2018-07-16T06:19:26.799Z,78.87
2018-07-16T06:20:34.083Z,79.00
2018-07-16T06:21:49.539Z,79.14
2018-07-16T06:31:16.517Z,79.28
2018-07-16T07:31:50.527Z,81.07
2018-07-16T08:03:11.865Z,83.13
2018-07-16T08:09:13.160Z,81.91
2018-07-16T08:10:19.996Z,82.28
2018-07-16T08:15:30.825Z,82.30
2018-07-16T08:16:38.880Z,82.07
2018-07-16T08:17:50.050Z,81.92
2018-07-16T08:18:51.648Z,82.02
2018-07-16T08:25:02.509Z,81.80
2018-07-16T08:28:22.104Z,81.91
2018-07-16T08:29:28.009Z,82.00
2018-07-16T08:30:35.001Z,82.01
2018-07-16T08:31:41.713Z,81.60
2018-07-16T08:32:48.593Z,81.63
2018-07-16T08:33:55.634Z,81.65
2018-07-16T08:35:02.747Z,81.41
2018-07-16T08:36:09.630Z,81.35
2018-07-16T08:37:16.608Z,81.41
2018-07-16T08:38:23.805Z,81.36
2018-07-16T08:39:30.368Z,81.35
2018-07-16T08:40:37.312Z,81.45
2018-07-16T08:41:44.254Z,81.46
2018-07-16T08:42:51.318Z,81.56
2018-07-16T08:45:05.152Z,81.37
2018-07-16T08:46:12.262Z,81.37
2018-07-16T08:47:19.313Z,80.96
2018-07-16T08:48:26.365Z,80.91
2018-07-16T08:49:32.991Z,80.66
2018-07-16T08:51:46.683Z,80.54
2018-07-16T08:52:53.735Z,80.30
2018-07-16T08:54:00.606Z,80.27
2018-07-16T08:55:07.664Z,80.06
2018-07-16T08:56:14.808Z,79.92
2018-07-16T08:57:21.889Z,79.75
2018-07-16T08:58:28.750Z,79.58
2018-07-16T08:59:36.099Z,79.50
2018-07-16T09:00:42.779Z,79.10
2018-07-16T09:01:49.710Z,79.11
2018-07-16T09:02:56.782Z,79.18
2018-07-16T09:04:03.641Z,78.85
2018-07-16T09:05:10.482Z,78.72
2018-07-16T09:06:17.599Z,78.24
2018-07-16T09:07:24.575Z,78.12
2018-07-16T09:08:31.460Z,78.14
2018-07-16T09:09:38.201Z,77.69
2018-07-16T09:10:45.129Z,77.48
2018-07-16T09:11:52.064Z,77.49
2018-07-16T09:12:59.062Z,77.12
2018-07-16T09:14:09.596Z,76.94
2018-07-16T09:15:14.467Z,76.89
2018-07-16T09:16:20.115Z,76.64
2018-07-16T09:18:34.015Z,76.85
2018-07-16T09:19:40.867Z,76.72
2018-07-16T09:20:47.750Z,76.35
2018-07-16T09:21:54.505Z,76.09
2018-07-16T09:23:01.506Z,75.97
2018-07-16T09:24:08.442Z,75.87
2018-07-16T09:25:15.438Z,76.02
2018-07-16T09:26:22.438Z,76.00
2018-07-16T09:27:34.832Z,75.69
2018-07-16T09:28:36.513Z,75.16
2018-07-16T09:29:43.250Z,75.28
2018-07-16T09:30:51.007Z,75.49
2018-07-16T09:31:57.234Z,75.53
2018-07-16T09:33:05.295Z,75.72
2018-07-16T09:34:11.228Z,75.83
2018-07-16T09:35:21.821Z,75.71
2018-07-16T09:36:24.963Z,75.53
2018-07-16T09:37:31.987Z,75.66
2018-07-16T09:38:38.702Z,75.14
2018-07-16T09:39:45.652Z,74.39
2018-07-16T09:40:52.676Z,74.34
2018-07-16T09:41:59.444Z,74.28
2018-07-16T09:43:06.404Z,74.37
2018-07-16T09:44:13.095Z,73.94
2018-07-16T09:45:22.944Z,73.53
2018-07-16T09:46:27.151Z,73.64
2018-07-16T09:47:33.981Z,73.61
2018-07-16T09:48:40.987Z,73.60
2018-07-16T09:49:47.919Z,73.82
2018-07-16T09:50:54.625Z,73.97
2018-07-16T09:52:01.516Z,73.98
2018-07-16T09:53:08.378Z,73.73
2018-07-16T09:54:15.590Z,73.49
2018-07-16T09:55:23.371Z,73.52
2018-07-16T09:56:29.012Z,73.61
2018-07-16T09:57:35.875Z,73.39
2018-07-16T09:58:42.767Z,73.11
2018-07-16T09:59:49.838Z,72.35
2018-07-16T10:00:56.970Z,72.33
2018-07-16T10:02:03.714Z,72.14
2018-07-16T10:03:10.797Z,71.62
2018-07-16T10:04:17.922Z,71.34
2018-07-16T10:05:24.943Z,70.94
2018-07-16T10:06:31.914Z,71.13
2018-07-16T10:07:38.811Z,70.91
2018-07-16T10:08:45.908Z,70.59
2018-07-16T10:09:53.755Z,70.66
2018-07-16T10:11:00.535Z,70.34
2018-07-16T10:12:07.040Z,70.35
2018-07-16T10:13:14.020Z,69.85
2018-07-16T10:14:21.202Z,69.67
2018-07-16T10:15:28.011Z,69.45
2018-07-16T10:16:34.800Z,69.35
2018-07-16T10:17:41.650Z,69.40
2018-07-16T10:18:48.394Z,69.42
2018-07-16T10:19:55.095Z,68.76
2018-07-16T10:21:02.241Z,68.55
2018-07-16T10:22:08.971Z,68.43
2018-07-16T10:23:15.790Z,68.13
2018-07-16T10:24:22.692Z,68.02
2018-07-16T10:25:29.510Z,67.61
2018-07-16T10:26:36.359Z,67.31
2018-07-16T10:27:43.249Z,66.81
2018-07-16T10:28:50.106Z,66.88
2018-07-16T10:29:57.030Z,67.14
2018-07-16T10:31:04.982Z,66.86
2018-07-16T10:32:10.874Z,67.13
2018-07-16T10:33:17.630Z,66.47
2018-07-16T10:34:24.404Z,66.08
2018-07-16T10:35:32.434Z,66.16
2018-07-16T10:36:38.088Z,65.67
2018-07-16T10:37:46.047Z,65.56
2018-07-16T10:38:51.979Z,65.78
2018-07-16T10:39:59.064Z,65.89
2018-07-16T10:41:06.248Z,65.65
2018-07-16T10:42:12.842Z,65.74
2018-07-16T10:43:19.733Z,66.03
2018-07-16T10:44:26.675Z,65.88
2018-07-16T10:45:36.685Z,65.89
2018-07-16T10:46:40.698Z,65.66
2018-07-16T10:47:47.706Z,65.10
2018-07-16T10:48:54.675Z,65.13
2018-07-16T10:50:01.803Z,64.24
2018-07-16T10:51:09.594Z,63.95
2018-07-16T10:52:15.370Z,63.28
2018-07-16T10:53:22.162Z,63.36
2018-07-16T10:54:29.011Z,63.07
2018-07-16T10:55:35.938Z,62.71
2018-07-16T10:56:42.945Z,61.75
2018-07-16T10:57:49.913Z,61.62
2018-07-16T10:58:56.861Z,61.72
2018-07-16T11:00:03.490Z,61.58
2018-07-16T11:01:10.300Z,61.68
2018-07-16T11:02:17.313Z,61.14
2018-07-16T11:03:24.227Z,60.89
2018-07-16T11:04:31.196Z,60.80
2018-07-16T11:05:38.222Z,60.79
2018-07-16T11:06:45.170Z,60.74
2018-07-16T11:07:53.687Z,60.77
2018-07-16T11:08:59.399Z,60.46
2018-07-16T11:10:06.542Z,60.74
2018-07-16T11:11:13.655Z,60.78
2018-07-16T11:12:22.816Z,60.16
2018-07-16T11:13:27.158Z,59.88
2018-07-16T11:14:34.231Z,59.94
2018-07-16T11:15:40.842Z,59.68
2018-07-16T11:16:47.922Z,59.26
2018-07-16T11:17:55.888Z,58.85
2018-07-16T11:19:01.973Z,58.31
2018-07-16T11:20:08.928Z,58.77
2018-07-16T11:21:16.062Z,58.47
2018-07-16T11:22:23.951Z,58.08
2018-07-16T11:23:30.455Z,58.14
2018-07-16T11:24:36.374Z,57.99
2018-07-16T11:25:52.228Z,57.66
2018-07-16T11:26:50.791Z,58.06
2018-07-16T11:27:57.268Z,57.91
2018-07-16T11:29:04.663Z,57.32
2018-07-16T11:30:11.035Z,57.20
2018-07-16T11:31:17.946Z,57.60
2018-07-16T11:32:24.787Z,57.68
2018-07-16T11:33:31.634Z,57.27
2018-07-16T11:34:38.649Z,56.67
2018-07-16T11:35:45.205Z,56.14
2018-07-16T11:36:52.339Z,56.04
2018-07-16T11:37:59.142Z,55.81
2018-07-16T11:39:05.972Z,55.52
2018-07-16T11:40:12.737Z,55.42
2018-07-16T11:41:19.579Z,54.90
2018-07-16T11:42:26.344Z,54.62
2018-07-16T11:43:33.198Z,54.47
2018-07-16T11:44:40.155Z,54.26
2018-07-16T11:45:46.958Z,54.19
2018-07-16T11:46:53.790Z,54.64
2018-07-16T11:48:00.551Z,54.50
2018-07-16T11:49:07.358Z,54.25
2018-07-16T11:50:14.133Z,53.98
2018-07-16T11:51:20.882Z,54.03
2018-07-16T11:52:27.733Z,53.99
2018-07-16T11:53:34.502Z,53.49
2018-07-16T11:54:41.298Z,53.76
2018-07-16T11:55:48.162Z,53.33
2018-07-16T11:56:54.945Z,53.27
2018-07-16T11:58:01.789Z,53.19
2018-07-16T11:59:08.665Z,53.14
2018-07-16T12:00:15.544Z,52.99
2018-07-16T12:01:22.383Z,53.22
2018-07-16T12:02:29.182Z,53.23
2018-07-16T12:03:36.158Z,53.55
2018-07-16T12:04:43.071Z,53.73
2018-07-16T12:05:49.932Z,53.15
2018-07-16T12:06:56.822Z,53.18
2018-07-16T12:08:03.675Z,53.01
2018-07-16T12:09:10.670Z,53.07
2018-07-16T12:10:17.514Z,52.92
2018-07-16T12:11:24.384Z,53.49
2018-07-16T12:12:31.250Z,53.51
2018-07-16T12:13:38.022Z,53.43
2018-07-16T12:14:45.495Z,53.06
2018-07-16T12:15:51.845Z,52.76
2018-07-16T12:16:58.778Z,52.86
2018-07-16T12:18:05.555Z,53.08
2018-07-16T12:19:12.391Z,52.98
2018-07-16T12:20:19.695Z,52.36
2018-07-16T12:21:26.379Z,52.20
2018-07-16T12:22:33.226Z,52.44
2018-07-16T12:23:40.135Z,52.43
2018-07-16T12:24:47.038Z,51.93
2018-07-16T12:25:53.945Z,51.64
2018-07-16T12:27:00.834Z,51.31
2018-07-16T12:28:07.698Z,51.31
2018-07-16T12:29:14.482Z,51.77
2018-07-16T12:30:21.286Z,52.61
2018-07-16T12:31:28.105Z,53.11
2018-07-16T12:32:34.859Z,53.55
2018-07-16T12:33:41.655Z,53.64
2018-07-16T12:34:48.436Z,54.04
2018-07-16T12:35:55.342Z,54.14
2018-07-16T12:37:02.179Z,54.14
2018-07-16T12:38:09.186Z,53.98
2018-07-16T12:39:15.981Z,53.77
2018-07-16T12:40:22.758Z,53.37
2018-07-16T12:41:29.576Z,52.84
2018-07-16T12:42:36.366Z,52.47
2018-07-16T12:43:43.165Z,52.40
2018-07-16T12:44:51.128Z,52.58
2018-07-16T12:45:56.877Z,51.96
2018-07-16T12:47:03.894Z,51.31
2018-07-16T12:48:10.803Z,51.04
2018-07-16T12:49:17.603Z,51.21
2018-07-16T12:50:24.379Z,51.70
2018-07-16T12:51:31.134Z,51.80
2018-07-16T12:52:37.913Z,51.93
2018-07-16T12:53:44.643Z,52.28
2018-07-16T12:54:51.414Z,52.54
2018-07-16T12:55:58.306Z,52.47
2018-07-16T12:57:05.134Z,52.38
2018-07-16T12:58:11.866Z,52.03
2018-07-16T12:59:18.632Z,51.52
2018-07-16T13:00:25.871Z,51.42
2018-07-16T13:01:32.178Z,51.38
2018-07-16T13:02:38.922Z,51.46
2018-07-16T13:03:45.678Z,51.60
2018-07-16T13:04:52.476Z,51.86
2018-07-16T13:05:59.340Z,52.02
2018-07-16T13:07:06.116Z,52.10
2018-07-16T13:08:12.896Z,52.00
2018-07-16T13:09:19.702Z,52.21
2018-07-16T13:10:26.522Z,52.86
2018-07-16T13:11:33.370Z,53.06
2018-07-16T13:12:40.157Z,52.52
2018-07-16T13:13:46.935Z,52.13
2018-07-16T13:14:53.729Z,51.43
2018-07-16T13:16:00.552Z,51.28
2018-07-16T13:17:07.331Z,51.42
2018-07-16T13:18:14.189Z,51.31
2018-07-16T13:19:20.982Z,50.48
2018-07-16T13:20:27.774Z,50.48
2018-07-16T13:21:34.647Z,50.19
2018-07-16T13:22:41.526Z,50.04
2018-07-16T13:23:48.285Z,50.09
2018-07-16T13:24:55.067Z,49.33
2018-07-16T13:26:01.975Z,48.67
2018-07-16T13:27:08.822Z,48.20
2018-07-16T13:28:15.610Z,47.94
2018-07-16T13:29:22.357Z,47.93
2018-07-16T13:30:29.167Z,48.10
2018-07-16T13:31:35.935Z,47.68
2018-07-16T13:32:42.774Z,47.58
2018-07-16T13:33:49.569Z,47.51
2018-07-16T13:34:56.363Z,47.22
2018-07-16T13:36:03.239Z,47.43
2018-07-16T13:37:10.107Z,47.68
2018-07-16T13:38:16.846Z,47.66
2018-07-16T13:39:23.651Z,47.72
2018-07-16T13:40:30.539Z,47.60
2018-07-16T13:41:37.391Z,48.07
2018-07-16T13:42:44.195Z,47.62
2018-07-16T13:43:50.980Z,47.57
2018-07-16T13:44:57.829Z,47.26
2018-07-16T13:46:04.698Z,47.43
2018-07-16T13:47:11.484Z,47.48
2018-07-16T13:48:18.316Z,46.56
2018-07-16T13:49:25.135Z,46.63
2018-07-16T13:50:31.908Z,46.77
2018-07-16T13:51:38.655Z,46.56
2018-07-16T13:52:45.926Z,46.17
2018-07-16T13:53:52.222Z,45.38
2018-07-16T13:54:59.046Z,45.55
2018-07-16T13:56:05.834Z,45.67
2018-07-16T13:57:12.691Z,45.51
2018-07-16T13:58:19.447Z,45.08
2018-07-16T13:59:26.242Z,45.07
2018-07-16T14:00:33.278Z,44.86
2018-07-16T14:01:40.065Z,44.78
2018-07-16T14:02:46.869Z,44.76
2018-07-16T14:03:53.659Z,45.49
2018-07-16T14:05:00.435Z,45.60
2018-07-16T14:06:07.447Z,45.68
2018-07-16T14:07:14.209Z,45.63
2018-07-16T14:08:21.042Z,45.42
2018-07-16T14:09:27.838Z,45.51
2018-07-16T14:10:34.621Z,45.57
2018-07-16T14:11:41.400Z,45.18
2018-07-16T14:12:48.230Z,45.43
2018-07-16T14:13:55.005Z,45.16
2018-07-16T14:15:01.795Z,44.82
2018-07-16T14:16:08.887Z,44.69
2018-07-16T14:17:15.590Z,44.46
2018-07-16T14:18:22.434Z,44.31
2018-07-16T14:19:29.193Z,44.09
2018-07-16T14:20:36.019Z,44.38
2018-07-16T14:21:42.849Z,43.80
2018-07-16T14:22:49.629Z,43.61
2018-07-16T14:23:56.773Z,44.01
2018-07-16T14:25:03.518Z,44.14
2018-07-16T14:26:10.259Z,44.08
2018-07-16T14:27:17.011Z,44.01
2018-07-16T14:28:23.766Z,43.97
2018-07-16T14:29:30.510Z,44.38
2018-07-16T14:30:37.314Z,44.11
2018-07-16T14:31:44.063Z,44.20
2018-07-16T14:32:50.786Z,44.37
2018-07-16T14:33:57.621Z,44.39
2018-07-16T14:35:04.483Z,43.99
2018-07-16T14:36:12.582Z,43.71
2018-07-16T14:37:18.315Z,43.51
2018-07-16T14:38:25.174Z,43.60
2018-07-16T14:39:32.391Z,43.15
2018-07-16T14:40:38.882Z,42.79
2018-07-16T14:41:45.780Z,42.51
2018-07-16T14:42:52.619Z,42.33
2018-07-16T14:43:59.406Z,42.67
2018-07-16T14:45:06.268Z,43.03
2018-07-16T14:46:13.149Z,43.11
2018-07-16T14:47:19.965Z,43.02
2018-07-16T14:48:26.741Z,43.29
2018-07-16T14:49:33.494Z,42.99
2018-07-16T14:50:40.330Z,42.51
2018-07-16T14:51:47.123Z,42.33
2018-07-16T14:52:53.917Z,42.29
2018-07-16T14:54:00.737Z,42.41
2018-07-16T14:55:07.645Z,42.52
2018-07-16T14:56:14.567Z,42.89
2018-07-16T14:57:21.303Z,43.42
2018-07-16T14:58:28.042Z,43.19
2018-07-16T14:59:34.870Z,43.01
2018-07-16T15:00:41.613Z,43.14
2018-07-16T15:01:48.510Z,42.85
2018-07-16T15:02:55.282Z,42.95
2018-07-16T15:04:02.042Z,42.87
2018-07-16T15:05:08.818Z,43.09
2018-07-16T15:06:15.716Z,42.69
2018-07-16T15:07:22.465Z,42.24
2018-07-16T15:08:29.251Z,41.80
2018-07-16T15:09:36.071Z,40.99
2018-07-16T15:10:42.840Z,40.49
2018-07-16T15:11:49.614Z,40.05
2018-07-16T15:12:56.957Z,40.04
2018-07-16T15:14:03.456Z,39.88
2018-07-16T15:16:17.543Z,40.05
2018-07-16T15:18:37.602Z,40.72
2018-07-16T15:19:38.178Z,40.20
2018-07-16T15:20:45.437Z,39.78
2018-07-16T15:22:59.079Z,39.56
2018-07-16T15:24:06.185Z,39.43
2018-07-16T15:25:12.968Z,39.12
2018-07-16T15:26:20.054Z,39.07
2018-07-16T15:27:26.849Z,39.13
2018-07-16T15:28:33.655Z,39.49
2018-07-16T15:29:40.481Z,39.90
2018-07-16T15:30:47.258Z,39.65
2018-07-16T15:31:54.096Z,39.75
2018-07-16T15:33:00.874Z,39.66
2018-07-16T15:34:07.729Z,39.49
2018-07-16T15:35:14.614Z,39.22
2018-07-16T15:36:21.441Z,39.14
2018-07-16T15:37:28.240Z,39.40
2018-07-16T15:38:35.072Z,39.80
2018-07-16T15:39:42.007Z,40.10
2018-07-16T15:40:48.887Z,40.18
2018-07-16T15:41:55.698Z,40.45
2018-07-16T15:43:02.576Z,40.00
2018-07-16T15:44:09.727Z,39.58
2018-07-16T15:45:16.530Z,39.48
2018-07-16T15:46:23.498Z,39.15
2018-07-16T15:47:30.270Z,39.32
2018-07-16T15:48:37.083Z,39.17
2018-07-16T15:49:43.798Z,38.52
2018-07-16T15:50:50.899Z,38.09
2018-07-16T15:51:57.710Z,37.89
2018-07-16T15:53:04.514Z,37.70
2018-07-16T15:54:11.287Z,37.83
2018-07-16T15:55:18.086Z,37.56
2018-07-16T15:56:24.910Z,37.33
2018-07-16T15:57:31.787Z,37.67
2018-07-16T15:58:38.549Z,38.10
2018-07-16T15:59:45.291Z,38.78
2018-07-16T16:00:52.044Z,39.05
2018-07-16T16:01:58.950Z,39.13
2018-07-16T16:03:06.083Z,39.36
2018-07-16T16:04:12.793Z,39.44
2018-07-16T16:05:19.595Z,39.39
2018-07-16T16:06:26.381Z,39.20
2018-07-16T16:07:33.121Z,38.78
2018-07-16T16:08:39.861Z,38.45
2018-07-16T16:09:46.626Z,38.52
2018-07-16T16:10:54.854Z,39.21
2018-07-16T16:12:00.183Z,39.03
2018-07-16T16:13:07.008Z,39.70
2018-07-16T16:14:13.706Z,39.49
2018-07-16T16:15:20.581Z,39.39
2018-07-16T16:16:27.444Z,39.12
2018-07-16T16:17:34.216Z,38.25
2018-07-16T16:18:41.043Z,37.77
2018-07-16T16:19:47.800Z,37.55
2018-07-16T16:20:54.558Z,37.68
2018-07-16T16:22:01.333Z,38.13
2018-07-16T16:23:08.448Z,38.50
2018-07-16T16:24:15.234Z,38.23
2018-07-16T16:25:22.006Z,38.25
2018-07-16T16:26:29.296Z,37.72
2018-07-16T16:27:35.474Z,37.41
2018-07-16T16:28:42.293Z,37.25
2018-07-16T16:29:49.068Z,37.09
2018-07-16T16:30:55.850Z,37.08
2018-07-16T16:32:02.830Z,37.04
2018-07-16T16:33:09.520Z,36.96
2018-07-16T16:34:16.346Z,37.06
2018-07-16T16:35:23.164Z,37.21
2018-07-16T16:36:29.949Z,37.07
2018-07-16T16:37:36.742Z,37.06
2018-07-16T16:38:43.600Z,37.20
2018-07-16T16:39:50.378Z,37.04
2018-07-16T16:40:57.181Z,37.12
2018-07-16T16:42:04.494Z,37.18